createdAt,value
2022-09-27T00:00:11.994Z,16.23
2022-09-27T00:01:12.310Z,16.11
2022-09-27T00:02:11.831Z,16.01
2022-09-27T00:03:10.663Z,16.47
2022-09-27T00:04:07.403Z,16.25
2022-09-27T00:05:04.311Z,16.17
2022-09-27T00:06:08.091Z,16.23
2022-09-27T00:07:05.422Z,16.28
2022-09-27T00:08:02.340Z,16.27
2022-09-27T00:09:00.252Z,16.23
2022-09-27T00:09:56.965Z,16.27
2022-09-27T00:11:10.298Z,15.73
2022-09-27T00:12:07.004Z,16.29
2022-09-27T00:13:03.846Z,16.01
2022-09-27T00:14:02.198Z,16.14
2022-09-27T00:14:59.811Z,16.00
2022-09-27T00:16:04.796Z,15.96
2022-09-27T00:17:01.562Z,15.27
2022-09-27T00:17:58.249Z,15.68
2022-09-27T00:19:00.205Z,16.08
2022-09-27T00:19:59.812Z,16.00
2022-09-27T00:20:56.666Z,16.08
2022-09-27T00:21:53.383Z,16.15
2022-09-27T00:22:50.254Z,16.01
2022-09-27T00:23:46.982Z,16.05
2022-09-27T00:24:43.683Z,16.04
2022-09-27T00:25:40.359Z,15.99
2022-09-27T00:26:37.172Z,15.91
2022-09-27T00:27:33.968Z,16.01
2022-09-27T00:28:31.135Z,15.95
2022-09-27T00:29:29.129Z,15.93
2022-09-27T00:30:25.798Z,16.11
2022-09-27T00:31:41.529Z,16.08
2022-09-27T00:32:56.902Z,16.08
2022-09-27T00:34:19.968Z,15.67
2022-09-27T00:35:16.821Z,15.73
2022-09-27T00:36:14.257Z,15.71
2022-09-27T00:37:11.717Z,16.01
2022-09-27T00:38:08.397Z,15.71
2022-09-27T00:39:05.157Z,15.82
2022-09-27T00:40:02.066Z,15.89
2022-09-27T00:40:58.782Z,15.93
2022-09-27T00:41:55.999Z,15.96
2022-09-27T00:42:52.683Z,15.88
2022-09-27T00:43:52.779Z,15.81
2022-09-27T00:45:05.874Z,15.29
2022-09-27T00:46:04.625Z,15.67
2022-09-27T00:47:10.705Z,15.77
2022-09-27T00:48:07.481Z,16.02
2022-09-27T00:49:09.931Z,15.90
2022-09-27T00:50:28.211Z,15.72
2022-09-27T00:51:25.347Z,15.93
2022-09-27T00:52:29.339Z,16.03
2022-09-27T00:53:42.973Z,15.94
2022-09-27T00:54:45.285Z,15.76
2022-09-27T00:55:56.095Z,15.72
2022-09-27T00:56:55.458Z,15.72
2022-09-27T00:57:52.711Z,15.79
2022-09-27T00:58:59.696Z,15.77
2022-09-27T01:00:10.005Z,15.48
2022-09-27T01:01:14.225Z,16.00
2022-09-27T01:02:12.582Z,16.04
2022-09-27T01:03:22.576Z,15.88
2022-09-27T01:04:24.200Z,15.96
2022-09-27T01:05:25.636Z,16.14
2022-09-27T01:06:23.037Z,16.13
2022-09-27T01:07:19.789Z,16.12
2022-09-27T01:08:16.550Z,16.15
2022-09-27T01:09:13.716Z,16.10
2022-09-27T01:10:12.195Z,15.18
2022-09-27T01:11:17.372Z,16.10
2022-09-27T01:12:37.075Z,16.00
2022-09-27T01:14:12.143Z,16.22
2022-09-27T01:15:27.373Z,16.21
2022-09-27T01:16:50.672Z,16.28
2022-09-27T01:18:09.102Z,16.15
2022-09-27T01:19:34.452Z,16.09
2022-09-27T01:20:37.101Z,16.12
2022-09-27T01:21:46.005Z,16.14
2022-09-27T01:22:58.185Z,16.15
2022-09-27T01:24:07.131Z,16.08
2022-09-27T01:25:39.288Z,15.88
2022-09-27T01:26:47.580Z,15.61
2022-09-27T01:27:51.350Z,15.94
2022-09-27T01:29:08.242Z,15.70
2022-09-27T01:30:29.717Z,15.90
2022-09-27T01:31:46.633Z,15.84
2022-09-27T01:33:04.893Z,15.78
2022-09-27T01:34:37.240Z,15.68
2022-09-27T01:36:11.433Z,15.83
2022-09-27T01:37:14.079Z,15.70
2022-09-27T01:38:31.977Z,15.73
2022-09-27T01:39:44.934Z,15.84
2022-09-27T01:40:53.597Z,15.84
2022-09-27T01:42:01.975Z,15.81
2022-09-27T01:43:08.604Z,15.69
2022-09-27T01:44:29.758Z,15.60
2022-09-27T01:45:34.260Z,15.29
2022-09-27T01:46:40.136Z,15.70
2022-09-27T01:47:53.994Z,15.50
2022-09-27T01:48:52.328Z,14.84
2022-09-27T01:50:00.473Z,15.71
2022-09-27T01:51:07.309Z,15.64
2022-09-27T01:52:10.477Z,15.63
2022-09-27T01:53:15.862Z,15.66
2022-09-27T01:54:22.159Z,15.65
2022-09-27T01:55:25.642Z,15.75
2022-09-27T01:56:38.291Z,15.55
2022-09-27T01:57:43.836Z,15.80
2022-09-27T01:58:49.100Z,15.70
2022-09-27T01:59:54.642Z,15.72
2022-09-27T02:00:55.344Z,15.38
2022-09-27T02:01:54.768Z,15.71
2022-09-27T02:03:06.042Z,15.28
2022-09-27T02:04:05.442Z,15.74
2022-09-27T02:05:07.627Z,15.79
2022-09-27T02:06:12.795Z,15.83
2022-09-27T02:07:42.373Z,15.76
2022-09-27T02:08:50.496Z,15.79
2022-09-27T02:09:58.097Z,15.70
2022-09-27T02:11:01.718Z,14.88
2022-09-27T02:12:06.582Z,15.36
2022-09-27T02:13:17.755Z,15.67
2022-09-27T02:14:42.126Z,15.56
2022-09-27T02:15:53.568Z,14.92
2022-09-27T02:16:59.396Z,15.87
2022-09-27T02:18:18.934Z,15.01
2022-09-27T02:19:49.367Z,15.95
2022-09-27T02:20:52.273Z,15.89
2022-09-27T02:22:09.852Z,15.94
2022-09-27T02:23:15.423Z,15.77
2022-09-27T02:24:21.143Z,15.77
2022-09-27T02:25:17.748Z,15.80
2022-09-27T02:26:35.964Z,15.81
2022-09-27T02:27:48.204Z,15.81
2022-09-27T02:29:00.002Z,15.77
2022-09-27T02:30:08.241Z,15.61
2022-09-27T02:31:05.173Z,15.52
2022-09-27T02:32:02.078Z,15.46
2022-09-27T02:32:59.254Z,14.94
2022-09-27T02:34:27.462Z,15.42
2022-09-27T02:35:32.407Z,15.34
2022-09-27T02:36:30.836Z,15.59
2022-09-27T02:37:27.599Z,15.66
2022-09-27T02:38:24.778Z,15.53
2022-09-27T02:39:22.125Z,15.55
2022-09-27T02:40:20.196Z,15.62
2022-09-27T02:41:19.706Z,15.74
2022-09-27T02:42:16.583Z,15.71
2022-09-27T02:43:17.597Z,15.62
2022-09-27T02:44:17.820Z,15.68
2022-09-27T02:45:18.501Z,14.92
2022-09-27T02:46:21.499Z,15.91
2022-09-27T02:47:46.045Z,15.74
2022-09-27T02:49:20.438Z,15.76
2022-09-27T02:50:55.857Z,15.81
2022-09-27T02:52:20.334Z,15.65
2022-09-27T02:53:19.654Z,15.81
2022-09-27T02:54:27.423Z,15.55
2022-09-27T02:55:24.071Z,15.84
2022-09-27T02:56:33.424Z,15.64
2022-09-27T02:57:57.546Z,15.79
2022-09-27T02:59:06.366Z,15.74
2022-09-27T03:00:15.921Z,15.68
2022-09-27T03:01:23.366Z,15.66
2022-09-27T03:02:26.259Z,15.71
2022-09-27T03:03:47.973Z,15.21
2022-09-27T03:05:02.554Z,15.58
2022-09-27T03:06:06.505Z,15.63
2022-09-27T03:07:04.226Z,15.66
2022-09-27T03:08:01.322Z,15.38
2022-09-27T03:08:58.038Z,15.67
2022-09-27T03:09:55.129Z,15.44
2022-09-27T03:10:51.896Z,15.40
2022-09-27T03:11:49.154Z,15.30
2022-09-27T03:12:46.448Z,15.67
2022-09-27T03:14:06.784Z,15.41
2022-09-27T03:15:01.582Z,15.69
2022-09-27T03:16:01.443Z,15.67
2022-09-27T03:16:58.545Z,15.73
2022-09-27T03:17:55.270Z,15.78
2022-09-27T03:18:51.930Z,15.45
2022-09-27T03:19:49.514Z,15.38
2022-09-27T03:20:46.470Z,15.65
2022-09-27T03:21:43.278Z,15.73
2022-09-27T03:22:40.802Z,15.00
2022-09-27T03:23:38.339Z,15.59
2022-09-27T03:24:35.101Z,15.40
2022-09-27T03:25:31.864Z,15.44
2022-09-27T03:26:28.694Z,15.38
2022-09-27T03:27:25.388Z,15.11
2022-09-27T03:28:22.167Z,15.62
2022-09-27T03:29:18.902Z,15.61
2022-09-27T03:30:16.101Z,15.73
2022-09-27T03:31:12.836Z,15.44
2022-09-27T03:32:10.313Z,15.69
2022-09-27T03:33:07.056Z,15.62
2022-09-27T03:34:03.780Z,15.69
2022-09-27T03:35:00.489Z,15.42
2022-09-27T03:35:57.188Z,15.66
2022-09-27T03:36:53.884Z,14.75
2022-09-27T03:37:50.583Z,15.60
2022-09-27T03:38:47.313Z,15.58
2022-09-27T03:39:44.010Z,15.89
2022-09-27T03:40:40.776Z,15.87
2022-09-27T03:41:38.263Z,15.58
2022-09-27T03:42:35.161Z,15.71
2022-09-27T03:43:31.836Z,15.82
2022-09-27T03:44:28.517Z,15.84
2022-09-27T03:45:25.341Z,15.78
2022-09-27T03:46:22.129Z,15.79
2022-09-27T03:47:19.639Z,15.72
2022-09-27T03:48:17.240Z,15.42
2022-09-27T03:49:14.038Z,15.71
2022-09-27T03:50:12.265Z,15.60
2022-09-27T03:51:12.699Z,15.60
2022-09-27T03:52:09.354Z,15.73
2022-09-27T03:53:06.284Z,15.76
2022-09-27T03:54:03.049Z,15.74
2022-09-27T03:55:02.114Z,15.76
2022-09-27T03:55:59.332Z,15.77
2022-09-27T03:56:56.015Z,15.45
2022-09-27T03:57:52.705Z,15.79
2022-09-27T03:58:49.552Z,15.81
2022-09-27T03:59:46.266Z,15.70
2022-09-27T04:00:44.118Z,15.02
2022-09-27T04:01:41.232Z,15.76
2022-09-27T04:02:38.166Z,15.10
2022-09-27T04:03:36.218Z,15.55
2022-09-27T04:04:32.944Z,15.82
2022-09-27T04:05:29.861Z,15.84
2022-09-27T04:06:27.102Z,14.84
2022-09-27T04:07:23.842Z,15.29
2022-09-27T04:08:22.282Z,15.29
2022-09-27T04:09:18.978Z,15.75
2022-09-27T04:10:16.576Z,14.80
2022-09-27T04:11:15.251Z,15.38
2022-09-27T04:12:12.361Z,15.67
2022-09-27T04:13:09.102Z,15.65
2022-09-27T04:14:05.950Z,15.70
2022-09-27T04:15:02.722Z,15.63
2022-09-27T04:15:59.468Z,15.72
2022-09-27T04:16:56.244Z,15.83
2022-09-27T04:17:53.077Z,15.84
2022-09-27T04:18:49.773Z,15.81
2022-09-27T04:19:46.450Z,15.48
2022-09-27T04:20:43.347Z,15.50
2022-09-27T04:21:40.146Z,15.64
2022-09-27T04:22:41.674Z,15.46
2022-09-27T04:23:38.407Z,15.64
2022-09-27T04:24:35.192Z,15.61
2022-09-27T04:25:35.154Z,15.71
2022-09-27T04:26:31.941Z,15.69
2022-09-27T04:27:28.617Z,15.86
2022-09-27T04:28:25.808Z,15.85
2022-09-27T04:29:22.705Z,15.74
2022-09-27T04:30:19.394Z,15.64
2022-09-27T04:31:16.182Z,15.65
2022-09-27T04:32:13.382Z,15.67
2022-09-27T04:33:10.062Z,15.72
2022-09-27T04:34:06.839Z,15.88
2022-09-27T04:35:22.097Z,15.83
2022-09-27T04:36:27.507Z,15.85
2022-09-27T04:37:24.742Z,15.91
2022-09-27T04:38:23.629Z,15.91
2022-09-27T04:39:20.340Z,15.99
2022-09-27T04:40:17.488Z,15.89
2022-09-27T04:41:14.880Z,15.86
2022-09-27T04:42:11.584Z,15.90
2022-09-27T04:43:08.266Z,15.84
2022-09-27T04:44:06.561Z,15.74
2022-09-27T04:45:03.451Z,15.78
2022-09-27T04:46:00.303Z,15.57
2022-09-27T04:46:57.139Z,15.50
2022-09-27T04:47:54.155Z,14.96
2022-09-27T04:48:51.181Z,16.00
2022-09-27T04:49:48.294Z,14.92
2022-09-27T04:50:45.000Z,15.93
2022-09-27T04:51:41.705Z,15.80
2022-09-27T04:52:38.719Z,15.80
2022-09-27T04:53:35.435Z,15.86
2022-09-27T04:54:32.595Z,15.05
2022-09-27T04:55:29.272Z,15.93
2022-09-27T04:56:26.238Z,15.96
2022-09-27T04:57:22.984Z,16.04
2022-09-27T04:58:19.684Z,15.73
2022-09-27T04:59:16.496Z,15.79
2022-09-27T05:00:13.936Z,15.91
2022-09-27T05:01:10.785Z,16.05
2022-09-27T05:02:07.783Z,16.13
2022-09-27T05:03:04.563Z,15.99
2022-09-27T05:04:01.384Z,15.80
2022-09-27T05:04:59.361Z,16.02
2022-09-27T05:05:56.161Z,16.06
2022-09-27T05:06:57.202Z,15.56
2022-09-27T05:07:54.201Z,15.80
2022-09-27T05:08:50.908Z,16.10
2022-09-27T05:09:47.601Z,16.14
2022-09-27T05:10:44.376Z,16.02
2022-09-27T05:11:41.069Z,15.64
2022-09-27T05:12:37.785Z,16.15
2022-09-27T05:13:34.636Z,16.33
2022-09-27T05:14:31.309Z,16.01
2022-09-27T05:15:28.852Z,16.33
2022-09-27T05:16:25.563Z,15.18
2022-09-27T05:17:23.549Z,16.28
2022-09-27T05:18:20.251Z,16.08
2022-09-27T05:19:17.103Z,16.00
2022-09-27T05:20:14.189Z,16.37
2022-09-27T05:21:10.975Z,16.41
2022-09-27T05:22:07.669Z,15.83
2022-09-27T05:23:04.793Z,16.21
2022-09-27T05:24:01.703Z,16.25
2022-09-27T05:24:58.436Z,16.47
2022-09-27T05:25:56.571Z,16.50
2022-09-27T05:26:54.113Z,16.49
2022-09-27T05:27:51.764Z,15.83
2022-09-27T05:28:48.440Z,16.57
2022-09-27T05:29:45.777Z,16.36
2022-09-27T05:30:42.524Z,16.65
2022-09-27T05:31:39.237Z,16.61
2022-09-27T05:32:36.213Z,16.41
2022-09-27T05:33:34.382Z,16.21
2022-09-27T05:34:32.609Z,16.61
2022-09-27T05:35:29.302Z,16.58
2022-09-27T05:36:26.016Z,16.42
2022-09-27T05:37:22.750Z,16.58
2022-09-27T05:38:19.643Z,16.25
2022-09-27T05:39:17.332Z,16.54
2022-09-27T05:40:36.533Z,16.46
2022-09-27T05:41:32.868Z,16.56
2022-09-27T05:42:29.629Z,16.47
2022-09-27T05:43:27.160Z,16.14
2022-09-27T05:44:25.975Z,16.17
2022-09-27T05:45:24.451Z,16.55
2022-09-27T05:46:21.328Z,16.53
2022-09-27T05:47:18.151Z,16.68
2022-09-27T05:48:14.850Z,16.61
2022-09-27T05:49:11.519Z,16.65
2022-09-27T05:50:09.361Z,16.60
2022-09-27T05:51:06.238Z,16.68
2022-09-27T05:52:02.996Z,16.40
2022-09-27T05:52:59.738Z,16.22
2022-09-27T05:53:56.516Z,16.46
2022-09-27T05:54:53.217Z,16.38
2022-09-27T05:55:49.931Z,16.54
2022-09-27T05:56:46.623Z,16.22
2022-09-27T05:57:43.365Z,16.46
2022-09-27T05:58:40.020Z,16.30
2022-09-27T05:59:36.690Z,16.22
2022-09-27T06:00:34.912Z,16.06
2022-09-27T06:01:31.648Z,16.04
2022-09-27T06:02:28.628Z,15.38
2022-09-27T06:03:25.474Z,15.93
2022-09-27T06:04:22.191Z,16.20
2022-09-27T06:05:19.798Z,16.40
2022-09-27T06:06:16.832Z,16.36
2022-09-27T06:07:13.535Z,16.20
2022-09-27T06:08:13.066Z,16.48
2022-09-27T06:09:15.493Z,16.48
2022-09-27T06:10:12.251Z,16.63
2022-09-27T06:11:14.202Z,16.32
2022-09-27T06:12:11.892Z,16.43
2022-09-27T06:13:15.332Z,16.49
2022-09-27T06:14:13.752Z,16.16
2022-09-27T06:15:10.802Z,16.52
2022-09-27T06:16:11.066Z,16.34
2022-09-27T06:17:07.817Z,16.23
2022-09-27T06:18:16.131Z,16.22
2022-09-27T06:19:13.044Z,16.50
2022-09-27T06:20:10.403Z,16.58
2022-09-27T06:21:07.280Z,15.99
2022-09-27T06:22:04.494Z,15.93
2022-09-27T06:23:07.423Z,16.26
2022-09-27T06:24:04.423Z,16.24
2022-09-27T06:25:01.132Z,16.40
2022-09-27T06:26:03.189Z,16.24
2022-09-27T06:26:59.969Z,16.43
2022-09-27T06:27:56.692Z,16.17
2022-09-27T06:28:54.783Z,16.04
2022-09-27T06:29:51.473Z,16.11
2022-09-27T06:30:50.804Z,16.03
2022-09-27T06:31:47.589Z,16.16
2022-09-27T06:32:44.750Z,15.68
2022-09-27T06:33:41.439Z,16.25
2022-09-27T06:34:38.261Z,15.63
2022-09-27T06:35:36.418Z,16.37
2022-09-27T06:36:33.398Z,16.09
2022-09-27T06:37:30.063Z,16.22
2022-09-27T06:38:26.737Z,16.42
2022-09-27T06:39:23.408Z,16.37
2022-09-27T06:40:20.770Z,16.34
2022-09-27T06:41:17.456Z,15.84
2022-09-27T06:42:14.138Z,16.37
2022-09-27T06:43:13.292Z,16.06
2022-09-27T06:44:10.004Z,16.17
2022-09-27T06:45:07.179Z,16.11
2022-09-27T06:46:05.293Z,16.00
2022-09-27T06:47:02.006Z,16.27
2022-09-27T06:48:02.422Z,15.53
2022-09-27T06:48:59.107Z,16.42
2022-09-27T06:50:14.517Z,16.43
2022-09-27T06:51:11.208Z,16.30
2022-09-27T06:52:07.971Z,15.52
2022-09-27T06:53:06.487Z,16.30
2022-09-27T06:54:03.253Z,15.99
2022-09-27T06:55:00.027Z,15.10
2022-09-27T06:56:01.417Z,16.21
2022-09-27T06:57:02.299Z,16.09
2022-09-27T06:58:20.250Z,15.98
2022-09-27T06:59:35.637Z,15.98
2022-09-27T07:00:32.766Z,16.46
2022-09-27T07:01:30.203Z,16.56
2022-09-27T07:02:27.616Z,16.70
2022-09-27T07:03:30.742Z,16.43
2022-09-27T07:04:29.799Z,16.61
2022-09-27T07:05:31.205Z,16.78
2022-09-27T07:06:28.620Z,16.24
2022-09-27T07:07:25.306Z,16.82
2022-09-27T07:08:21.991Z,16.48
2022-09-27T07:09:18.733Z,16.53
2022-09-27T07:10:18.132Z,16.67
2022-09-27T07:11:15.501Z,16.84
2022-09-27T07:12:13.401Z,16.64
2022-09-27T07:13:11.363Z,15.79
2022-09-27T07:14:08.233Z,16.68
2022-09-27T07:15:06.235Z,16.71
2022-09-27T07:16:03.658Z,16.69
2022-09-27T07:17:00.348Z,16.37
2022-09-27T07:18:00.574Z,16.23
2022-09-27T07:19:00.471Z,16.35
2022-09-27T07:19:57.685Z,16.30
2022-09-27T07:20:59.391Z,15.77
2022-09-27T07:21:56.939Z,16.03
2022-09-27T07:22:53.609Z,16.33
2022-09-27T07:23:50.590Z,16.17
2022-09-27T07:24:47.540Z,16.23
2022-09-27T07:25:44.402Z,16.27
2022-09-27T07:26:41.091Z,16.35
2022-09-27T07:27:38.727Z,16.13
2022-09-27T07:28:35.558Z,16.40
2022-09-27T07:29:32.310Z,16.42
2022-09-27T07:30:29.544Z,16.04
2022-09-27T07:31:26.335Z,16.21
2022-09-27T07:32:23.051Z,16.42
2022-09-27T07:33:19.718Z,16.31
2022-09-27T07:34:18.975Z,16.14
2022-09-27T07:35:15.694Z,16.61
2022-09-27T07:36:14.139Z,16.48
2022-09-27T07:37:10.826Z,16.10
2022-09-27T07:38:12.258Z,16.44
2022-09-27T07:39:09.922Z,16.48
2022-09-27T07:40:09.457Z,16.73
2022-09-27T07:41:14.237Z,16.93
2022-09-27T07:42:11.353Z,16.78
2022-09-27T07:43:09.470Z,16.78
2022-09-27T07:44:06.449Z,16.77
2022-09-27T07:45:07.269Z,16.03
2022-09-27T07:46:06.398Z,16.65
2022-09-27T07:47:07.333Z,16.55
2022-09-27T07:48:06.311Z,16.95
2022-09-27T07:49:03.092Z,16.93
2022-09-27T07:49:59.879Z,17.12
2022-09-27T07:50:56.618Z,17.26
2022-09-27T07:51:53.325Z,17.04
2022-09-27T07:52:51.224Z,16.64
2022-09-27T07:53:47.934Z,16.77
2022-09-27T07:54:44.751Z,16.87
2022-09-27T07:55:42.527Z,16.47
2022-09-27T07:56:39.248Z,16.63
2022-09-27T07:57:36.208Z,17.05
2022-09-27T07:58:33.008Z,16.98
2022-09-27T07:59:30.074Z,16.63
2022-09-27T08:00:26.863Z,16.96
2022-09-27T08:01:23.646Z,16.75
2022-09-27T08:02:20.822Z,16.81
2022-09-27T08:03:18.022Z,16.45
2022-09-27T08:04:14.732Z,16.23
2022-09-27T08:05:13.304Z,16.45
2022-09-27T08:06:10.607Z,16.33
2022-09-27T08:07:08.606Z,16.76
2022-09-27T08:08:07.147Z,16.27
2022-09-27T08:09:06.880Z,16.65
2022-09-27T08:10:03.804Z,16.54
2022-09-27T08:11:00.617Z,16.47
2022-09-27T08:11:58.352Z,16.36
2022-09-27T08:12:55.113Z,16.80
2022-09-27T08:13:57.037Z,16.65
2022-09-27T08:14:54.703Z,16.41
2022-09-27T08:15:52.880Z,16.79
2022-09-27T08:16:51.125Z,16.59
2022-09-27T08:17:47.842Z,16.50
2022-09-27T08:18:45.196Z,15.83
2022-09-27T08:19:42.188Z,16.61
2022-09-27T08:20:40.101Z,16.60
2022-09-27T08:21:36.960Z,16.72
2022-09-27T08:22:33.817Z,16.77
2022-09-27T08:23:31.158Z,16.55
2022-09-27T08:24:28.304Z,16.81
2022-09-27T08:25:25.037Z,16.81
2022-09-27T08:26:21.811Z,16.87
2022-09-27T08:27:18.590Z,16.78
2022-09-27T08:28:15.255Z,16.33
2022-09-27T08:29:12.910Z,16.76
2022-09-27T08:30:10.156Z,16.97
2022-09-27T08:31:06.942Z,17.08
2022-09-27T08:32:03.931Z,15.99
2022-09-27T08:33:03.239Z,16.94
2022-09-27T08:33:59.981Z,16.93
2022-09-27T08:34:57.119Z,17.05
2022-09-27T08:35:53.858Z,16.82
2022-09-27T08:36:50.553Z,17.31
2022-09-27T08:37:59.749Z,17.19
2022-09-27T08:38:59.146Z,17.34
2022-09-27T08:39:55.830Z,17.38
2022-09-27T08:40:58.328Z,17.58
2022-09-27T08:41:55.000Z,17.67
2022-09-27T08:43:05.059Z,16.88
2022-09-27T08:44:23.067Z,17.55
2022-09-27T08:46:06.122Z,17.60
2022-09-27T08:47:29.477Z,17.86
2022-09-27T08:48:28.945Z,17.75
2022-09-27T08:49:43.343Z,17.66
2022-09-27T08:50:46.792Z,17.37
2022-09-27T08:51:48.558Z,17.47
2022-09-27T08:53:23.613Z,17.55
2022-09-27T08:54:31.455Z,16.69
2022-09-27T08:55:28.115Z,17.43
2022-09-27T08:56:26.119Z,17.26
2022-09-27T08:57:25.458Z,17.24
2022-09-27T08:58:28.848Z,17.18
2022-09-27T08:59:34.427Z,17.30
2022-09-27T09:00:31.995Z,17.35
2022-09-27T09:01:29.270Z,17.25
2022-09-27T09:02:27.312Z,17.67
2022-09-27T09:03:29.426Z,17.60
2022-09-27T09:04:39.931Z,17.45
2022-09-27T09:05:38.063Z,16.77
2022-09-27T09:06:47.958Z,17.86
2022-09-27T09:08:03.247Z,17.88
2022-09-27T09:09:21.353Z,17.89
2022-09-27T09:10:54.962Z,17.91
2022-09-27T09:12:25.116Z,17.93
2022-09-27T09:13:36.922Z,17.92
2022-09-27T09:14:36.556Z,17.91
2022-09-27T09:15:56.430Z,17.79
2022-09-27T09:17:00.742Z,17.99
2022-09-27T09:18:28.098Z,18.01
2022-09-27T09:20:02.052Z,18.19
2022-09-27T09:21:33.293Z,18.35
2022-09-27T09:23:17.355Z,18.50
2022-09-27T09:24:32.424Z,18.72
2022-09-27T09:25:38.181Z,18.69
2022-09-27T09:27:06.316Z,18.62
2022-09-27T09:28:25.747Z,18.64
2022-09-27T09:29:24.912Z,18.62
2022-09-27T09:30:31.068Z,18.55
2022-09-27T09:31:42.624Z,18.46
2022-09-27T09:32:51.232Z,18.80
2022-09-27T09:34:05.388Z,18.41
2022-09-27T09:35:11.783Z,18.44
2022-09-27T09:36:08.446Z,18.64
2022-09-27T09:37:22.009Z,18.76
2022-09-27T09:38:25.095Z,18.63
2022-09-27T09:39:45.195Z,18.68
2022-09-27T09:40:52.470Z,18.16
2022-09-27T09:42:06.516Z,18.68
2022-09-27T09:43:18.361Z,18.50
2022-09-27T09:44:30.140Z,18.40
2022-09-27T09:45:49.720Z,18.57
2022-09-27T09:46:55.742Z,18.52
2022-09-27T09:48:15.289Z,18.39
2022-09-27T09:49:30.542Z,18.31
2022-09-27T09:50:35.306Z,18.40
2022-09-27T09:51:46.711Z,18.39
2022-09-27T09:52:54.354Z,18.46
2022-09-27T09:54:15.818Z,17.60
2022-09-27T09:55:25.227Z,18.19
2022-09-27T09:56:36.316Z,18.14
2022-09-27T09:57:44.512Z,18.07
2022-09-27T09:58:54.276Z,18.11
2022-09-27T10:00:01.690Z,18.25
2022-09-27T10:01:11.836Z,18.27
2022-09-27T10:02:33.348Z,18.19
2022-09-27T10:03:30.080Z,17.46
2022-09-27T10:04:28.761Z,17.93
2022-09-27T10:05:28.168Z,18.12
2022-09-27T10:06:27.230Z,18.17
2022-09-27T10:07:27.132Z,18.27
2022-09-27T10:08:24.611Z,18.31
2022-09-27T10:09:27.912Z,17.98
2022-09-27T10:10:24.753Z,18.41
2022-09-27T10:11:40.504Z,18.37
2022-09-27T10:12:37.702Z,18.47
2022-09-27T10:13:36.372Z,18.15
2022-09-27T10:14:33.595Z,18.26
2022-09-27T10:15:31.084Z,18.45
2022-09-27T10:16:29.212Z,18.40
2022-09-27T10:17:38.730Z,18.41
2022-09-27T10:18:44.112Z,18.46
2022-09-27T10:19:43.507Z,18.36
2022-09-27T10:20:59.966Z,18.62
2022-09-27T10:22:28.467Z,18.12
2022-09-27T10:23:25.849Z,18.59
2022-09-27T10:24:22.616Z,18.59
2022-09-27T10:25:19.766Z,18.19
2022-09-27T10:26:19.896Z,19.00
2022-09-27T10:27:16.659Z,17.61
2022-09-27T10:28:45.927Z,19.07
2022-09-27T10:29:42.836Z,18.34
2022-09-27T10:30:39.595Z,18.52
2022-09-27T10:31:38.402Z,18.92
2022-09-27T10:32:37.550Z,18.89
2022-09-27T10:33:38.335Z,19.13
2022-09-27T10:34:40.166Z,18.52
2022-09-27T10:35:42.413Z,18.69
2022-09-27T10:36:39.299Z,19.04
2022-09-27T10:37:36.086Z,18.90
2022-09-27T10:38:37.523Z,19.14
2022-09-27T10:39:36.989Z,18.94
2022-09-27T10:40:35.294Z,19.33
2022-09-27T10:41:35.494Z,19.45
2022-09-27T10:42:38.641Z,19.41
2022-09-27T10:43:37.057Z,19.58
2022-09-27T10:44:33.796Z,19.56
2022-09-27T10:45:33.499Z,18.99
2022-09-27T10:46:34.779Z,18.87
2022-09-27T10:47:31.521Z,19.58
2022-09-27T10:48:28.326Z,19.47
2022-09-27T10:49:30.229Z,19.72
2022-09-27T10:50:50.836Z,19.77
2022-09-27T10:51:54.632Z,19.67
2022-09-27T10:53:21.366Z,19.38
2022-09-27T10:54:30.692Z,19.62
2022-09-27T10:55:27.778Z,19.84
2022-09-27T10:56:30.012Z,19.46
2022-09-27T10:57:30.184Z,19.78
2022-09-27T10:58:36.852Z,19.04
2022-09-27T10:59:39.682Z,19.66
2022-09-27T11:00:37.581Z,20.11
2022-09-27T11:01:51.808Z,20.04
2022-09-27T11:02:58.408Z,20.31
2022-09-27T11:03:59.266Z,20.05
2022-09-27T11:05:03.648Z,19.98
2022-09-27T11:06:00.579Z,19.34
2022-09-27T11:07:09.337Z,20.11
2022-09-27T11:08:28.692Z,20.25
2022-09-27T11:09:26.879Z,19.97
2022-09-27T11:10:29.901Z,20.28
2022-09-27T11:11:28.603Z,20.42
2022-09-27T11:12:25.485Z,20.35
2022-09-27T11:13:22.202Z,20.36
2022-09-27T11:14:24.356Z,19.56
2022-09-27T11:15:24.475Z,20.53
2022-09-27T11:16:35.475Z,20.65
2022-09-27T11:18:01.403Z,20.47
2022-09-27T11:18:58.084Z,20.55
2022-09-27T11:20:36.719Z,20.84
2022-09-27T11:21:47.459Z,20.93
2022-09-27T11:23:21.377Z,21.07
2022-09-27T11:25:01.614Z,21.03
2022-09-27T11:26:17.800Z,21.08
2022-09-27T11:27:49.709Z,21.18
2022-09-27T11:28:46.327Z,21.03
2022-09-27T11:30:03.892Z,21.15
2022-09-27T11:31:28.633Z,21.21
2022-09-27T11:32:59.506Z,21.34
2022-09-27T11:34:24.898Z,21.43
2022-09-27T11:35:47.229Z,21.47
2022-09-27T11:37:15.570Z,21.50
2022-09-27T11:38:51.037Z,21.63
2022-09-27T11:39:58.648Z,21.37
2022-09-27T11:41:20.477Z,21.69
2022-09-27T11:42:44.723Z,21.73
2022-09-27T11:43:56.610Z,21.73
2022-09-27T11:46:41.665Z,21.73
2022-09-27T11:47:47.954Z,21.75
2022-09-27T11:49:07.871Z,21.41
2022-09-27T11:50:26.496Z,21.69
2022-09-27T11:51:26.817Z,21.68
2022-09-27T11:52:39.813Z,21.65
2022-09-27T11:53:36.636Z,22.08
2022-09-27T11:54:39.329Z,22.21
2022-09-27T11:55:52.934Z,21.46
2022-09-27T11:57:04.861Z,22.38
2022-09-27T11:58:13.598Z,22.44
2022-09-27T11:59:29.433Z,22.51
2022-09-27T12:00:49.130Z,22.37
2022-09-27T12:02:04.165Z,22.76
2022-09-27T12:03:42.478Z,22.74
2022-09-27T12:05:03.954Z,22.69
2022-09-27T12:06:16.713Z,22.57
2022-09-27T12:07:48.545Z,22.73
2022-09-27T12:09:03.226Z,23.04
2022-09-27T12:10:09.649Z,22.79
2022-09-27T12:11:30.838Z,23.07
2022-09-27T12:12:36.127Z,23.12
2022-09-27T12:13:56.871Z,23.30
2022-09-27T12:15:07.122Z,23.05
2022-09-27T12:16:06.311Z,23.24
2022-09-27T12:17:11.474Z,23.30
2022-09-27T12:18:29.370Z,23.37
2022-09-27T12:19:32.676Z,23.08
2022-09-27T12:20:35.320Z,23.26
2022-09-27T12:21:33.831Z,22.95
2022-09-27T12:22:58.251Z,23.40
2022-09-27T12:23:58.463Z,23.59
2022-09-27T12:24:56.279Z,23.76
2022-09-27T12:26:03.630Z,23.56
2022-09-27T12:27:35.020Z,23.75
2022-09-27T12:28:52.771Z,23.68
2022-09-27T12:29:56.023Z,23.79
2022-09-27T12:31:27.435Z,23.89
2022-09-27T12:32:30.562Z,23.76
2022-09-27T12:33:44.519Z,23.63
2022-09-27T12:35:01.491Z,23.71
2022-09-27T12:36:07.839Z,23.41
2022-09-27T12:37:11.244Z,23.59
2022-09-27T12:38:46.777Z,23.11
2022-09-27T12:39:56.246Z,23.48
2022-09-27T12:40:58.732Z,22.87
2022-09-27T12:42:05.683Z,23.43
2022-09-27T12:43:06.867Z,23.35
2022-09-27T12:44:03.661Z,23.33
2022-09-27T12:45:00.471Z,23.34
2022-09-27T12:46:32.019Z,23.38
2022-09-27T12:47:47.426Z,23.40
2022-09-27T12:49:00.393Z,23.49
2022-09-27T12:50:34.052Z,23.50
2022-09-27T12:51:42.019Z,23.54
2022-09-27T12:52:57.196Z,23.55
2022-09-27T12:53:54.149Z,23.49
2022-09-27T12:55:25.030Z,23.47
2022-09-27T12:56:47.936Z,23.50
2022-09-27T12:58:03.018Z,23.60
2022-09-27T12:59:10.318Z,23.58
2022-09-27T13:00:19.407Z,23.69
2022-09-27T13:01:31.875Z,23.47
2022-09-27T13:02:31.795Z,23.50
2022-09-27T13:03:58.550Z,23.45
2022-09-27T13:05:11.138Z,23.43
2022-09-27T13:06:25.749Z,23.47
2022-09-27T13:07:32.748Z,23.51
2022-09-27T13:08:54.618Z,23.46
2022-09-27T13:10:13.188Z,23.29
2022-09-27T13:11:23.620Z,23.42
2022-09-27T13:12:29.358Z,22.24
2022-09-27T13:13:34.240Z,22.68
2022-09-27T13:14:58.755Z,23.41
2022-09-27T13:16:00.173Z,23.23
2022-09-27T13:16:56.942Z,23.45
2022-09-27T13:17:56.664Z,23.60
2022-09-27T13:19:01.694Z,23.55
2022-09-27T13:19:58.884Z,23.49
2022-09-27T13:20:55.902Z,23.49
2022-09-27T13:21:52.599Z,23.39
2022-09-27T13:22:49.469Z,23.39
2022-09-27T13:23:46.089Z,23.67
2022-09-27T13:24:46.920Z,23.74
2022-09-27T13:25:58.161Z,23.70
2022-09-27T13:26:56.502Z,22.70
2022-09-27T13:27:53.270Z,23.53
2022-09-27T13:28:49.885Z,23.45
2022-09-27T13:29:46.578Z,23.32
2022-09-27T13:30:45.151Z,23.32
2022-09-27T13:31:53.516Z,23.25
2022-09-27T13:33:08.682Z,23.20
2022-09-27T13:34:38.586Z,22.94
2022-09-27T13:35:35.393Z,23.25
2022-09-27T13:36:33.645Z,23.03
2022-09-27T13:37:47.062Z,23.22
2022-09-27T13:39:01.409Z,23.20
2022-09-27T13:40:16.643Z,23.18